createdAt,value
2017-07-23T00:00:58.289Z,0
2017-07-23T00:02:00.178Z,0
2017-07-23T00:03:01.993Z,0
2017-07-23T00:04:03.824Z,0
2017-07-23T00:05:05.711Z,0
2017-07-23T00:06:07.587Z,0
2017-07-23T00:07:09.484Z,0
2017-07-23T00:08:23.653Z,0
2017-07-23T00:09:25.546Z,0
2017-07-23T00:10:27.424Z,0
2017-07-23T00:11:29.316Z,0
2017-07-23T00:12:31.153Z,0
2017-07-23T00:13:32.980Z,0
2017-07-23T00:14:34.852Z,0
2017-07-23T00:15:36.746Z,0
2017-07-23T00:16:38.622Z,0
2017-07-23T00:17:52.789Z,0
2017-07-23T00:18:54.689Z,0
2017-07-23T00:19:56.580Z,0
2017-07-23T00:20:58.453Z,0
2017-07-23T00:22:00.285Z,0
2017-07-23T00:23:02.093Z,0
2017-07-23T00:24:03.989Z,0
2017-07-23T00:25:05.889Z,0
2017-07-23T00:26:07.779Z,0
2017-07-23T00:27:21.904Z,0
2017-07-23T00:28:23.785Z,0
2017-07-23T00:29:25.677Z,0
2017-07-23T00:30:27.547Z,0
2017-07-23T00:31:29.374Z,0
2017-07-23T00:32:31.183Z,0
2017-07-23T00:33:33.057Z,0
2017-07-23T00:34:34.948Z,0
2017-07-23T00:35:36.817Z,0
2017-07-23T00:36:50.963Z,0
2017-07-23T00:37:52.857Z,0
2017-07-23T00:38:54.731Z,0
2017-07-23T00:39:56.605Z,0
2017-07-23T00:40:58.416Z,0
2017-07-23T00:42:00.247Z,0
2017-07-23T00:43:02.119Z,0
2017-07-23T00:44:03.994Z,0
2017-07-23T00:45:05.865Z,0
2017-07-23T00:46:20.033Z,0
2017-07-23T00:47:21.928Z,0
2017-07-23T00:48:23.801Z,0
2017-07-23T00:49:25.676Z,0
2017-07-23T00:50:27.481Z,0
2017-07-23T00:51:29.293Z,0
2017-07-23T00:52:31.184Z,0
2017-07-23T00:53:33.065Z,0
2017-07-23T00:54:34.955Z,0
2017-07-23T00:55:49.102Z,0
2017-07-23T00:56:51.000Z,0
2017-07-23T00:57:52.896Z,0
2017-07-23T00:58:54.789Z,0
2017-07-23T00:59:56.598Z,0
2017-07-23T01:00:58.432Z,0
2017-07-23T01:02:00.326Z,0
2017-07-23T01:03:02.219Z,0
2017-07-23T01:04:04.090Z,0
2017-07-23T01:05:18.226Z,0
2017-07-23T01:06:20.098Z,0
2017-07-23T01:07:21.969Z,0
2017-07-23T01:08:23.833Z,0
2017-07-23T01:09:25.647Z,0
2017-07-23T01:10:27.474Z,0
2017-07-23T01:11:29.350Z,0
2017-07-23T01:12:31.244Z,0
2017-07-23T01:13:33.121Z,0
2017-07-23T01:14:47.287Z,0
2017-07-23T01:15:49.184Z,0
2017-07-23T01:16:51.057Z,0
2017-07-23T01:17:52.950Z,0
2017-07-23T01:18:54.784Z,0
2017-07-23T01:19:56.616Z,0
2017-07-23T01:20:58.486Z,0
2017-07-23T01:22:00.359Z,0
2017-07-23T01:23:02.249Z,0
2017-07-23T01:24:16.398Z,0
2017-07-23T01:25:18.295Z,0
2017-07-23T01:26:20.194Z,0
2017-07-23T01:27:22.062Z,0
2017-07-23T01:28:23.872Z,0
2017-07-23T01:29:25.702Z,0
2017-07-23T01:30:27.573Z,0
2017-07-23T01:31:29.466Z,0
2017-07-23T01:32:31.336Z,0
2017-07-23T01:33:45.475Z,0
2017-07-23T01:34:47.353Z,0
2017-07-23T01:35:49.248Z,0
2017-07-23T01:36:51.145Z,0
2017-07-23T01:37:52.976Z,0
2017-07-23T01:38:54.802Z,0
2017-07-23T01:39:56.676Z,0
2017-07-23T01:40:58.549Z,0
2017-07-23T01:42:00.415Z,0
2017-07-23T01:43:14.554Z,0
2017-07-23T01:44:16.432Z,0
2017-07-23T01:45:19.303Z,0
2017-07-23T01:46:21.193Z,0
2017-07-23T01:47:22.997Z,0
2017-07-23T01:48:24.825Z,0
2017-07-23T01:49:26.695Z,0
2017-07-23T01:50:28.567Z,0
2017-07-23T01:51:30.459Z,0
2017-07-23T01:52:44.665Z,0
2017-07-23T01:53:46.517Z,0
2017-07-23T01:54:48.391Z,0
2017-07-23T01:55:50.278Z,0
2017-07-23T01:56:52.085Z,0
2017-07-23T01:57:53.895Z,0
2017-07-23T01:58:55.793Z,0
2017-07-23T01:59:57.677Z,0
2017-07-23T02:00:59.552Z,0
2017-07-23T02:02:13.765Z,0
2017-07-23T02:03:15.662Z,0
2017-07-23T02:04:17.550Z,0
2017-07-23T02:05:19.419Z,0
2017-07-23T02:06:21.245Z,0
2017-07-23T02:07:23.053Z,0
2017-07-23T02:08:24.949Z,0
2017-07-23T02:09:26.835Z,0
2017-07-23T02:10:28.703Z,0
2017-07-23T02:11:42.848Z,0
2017-07-23T02:12:44.716Z,0
2017-07-23T02:13:46.587Z,0
2017-07-23T02:14:48.481Z,0
2017-07-23T02:15:50.310Z,0
2017-07-23T02:16:52.138Z,0
2017-07-23T02:17:54.010Z,0
2017-07-23T02:18:55.901Z,0
2017-07-23T02:19:57.769Z,0
2017-07-23T02:21:11.963Z,0
2017-07-23T02:22:13.857Z,0
2017-07-23T02:23:15.747Z,0
2017-07-23T02:24:17.612Z,0
2017-07-23T02:25:19.424Z,0
2017-07-23T02:26:21.252Z,0
2017-07-23T02:27:23.141Z,0
2017-07-23T02:28:25.013Z,0
2017-07-23T02:29:26.888Z,0
2017-07-23T02:30:41.048Z,0
2017-07-23T02:31:42.927Z,4
2017-07-23T02:32:44.804Z,4
2017-07-23T02:33:46.692Z,4
2017-07-23T02:34:48.497Z,0
2017-07-23T02:35:50.306Z,0
2017-07-23T02:36:52.196Z,4
2017-07-23T02:37:54.061Z,4
2017-07-23T02:38:55.933Z,8
2017-07-23T02:40:10.058Z,4
2017-07-23T02:41:11.923Z,8
2017-07-23T02:42:13.799Z,4
2017-07-23T02:43:15.686Z,8
2017-07-23T02:44:17.511Z,8
2017-07-23T02:45:19.314Z,8
2017-07-23T02:46:21.189Z,12
2017-07-23T02:47:23.059Z,12
2017-07-23T02:48:24.951Z,16
2017-07-23T02:49:39.115Z,20
2017-07-23T02:50:40.985Z,20
2017-07-23T02:51:42.865Z,24
2017-07-23T02:52:44.746Z,28
2017-07-23T02:53:46.557Z,28
2017-07-23T02:54:48.386Z,32
2017-07-23T02:55:50.234Z,40
2017-07-23T02:56:52.039Z,44
2017-07-23T02:57:53.849Z,48
2017-07-23T02:59:07.987Z,56
2017-07-23T03:00:09.880Z,64
2017-07-23T03:01:11.752Z,72
2017-07-23T03:02:13.642Z,76
2017-07-23T03:03:15.452Z,88
2017-07-23T03:04:17.258Z,100
2017-07-23T03:05:19.148Z,108
2017-07-23T03:06:21.022Z,120
2017-07-23T03:07:22.919Z,128
2017-07-23T03:08:37.078Z,148
2017-07-23T03:09:38.955Z,168
2017-07-23T03:10:40.846Z,192
2017-07-23T03:11:42.720Z,216
2017-07-23T03:12:44.548Z,240
2017-07-23T03:13:46.355Z,264
2017-07-23T03:14:48.229Z,288
2017-07-23T03:15:50.099Z,316
2017-07-23T03:16:51.978Z,344
2017-07-23T03:18:06.119Z,376
2017-07-23T03:19:07.988Z,408
2017-07-23T03:20:09.860Z,436
2017-07-23T03:21:11.759Z,472
2017-07-23T03:22:13.590Z,508
2017-07-23T03:23:15.417Z,540
2017-07-23T03:24:17.294Z,580
2017-07-23T03:25:19.183Z,616
2017-07-23T03:26:21.055Z,656
2017-07-23T03:27:35.199Z,712
2017-07-23T03:28:37.096Z,764
2017-07-23T03:29:38.992Z,824
2017-07-23T03:30:40.885Z,880
2017-07-23T03:31:42.694Z,956
2017-07-23T03:32:44.503Z,1028
2017-07-23T03:33:46.375Z,1108
2017-07-23T03:34:48.251Z,1200
2017-07-23T03:35:50.130Z,1276
2017-07-23T03:37:04.297Z,1372
2017-07-23T03:38:06.167Z,1448
2017-07-23T03:39:08.061Z,1544
2017-07-23T03:40:09.936Z,1648
2017-07-23T03:41:11.745Z,1748
2017-07-23T03:42:13.577Z,1840
2017-07-23T03:43:15.452Z,1932
2017-07-23T03:44:17.326Z,2032
2017-07-23T03:45:19.200Z,2136
2017-07-23T03:46:33.371Z,2280
2017-07-23T03:47:35.269Z,2416
2017-07-23T03:48:37.164Z,2592
2017-07-23T03:49:39.063Z,2756
2017-07-23T03:50:40.890Z,2908
2017-07-23T03:51:42.702Z,3068
2017-07-23T03:52:44.602Z,3200
2017-07-23T03:53:46.503Z,3356
2017-07-23T03:54:48.397Z,3564
2017-07-23T03:56:02.544Z,3820
2017-07-23T03:57:04.412Z,4000
2017-07-23T03:58:06.288Z,4168
2017-07-23T03:59:08.186Z,4376
2017-07-23T04:00:10.023Z,4604
2017-07-23T04:01:11.856Z,4808
2017-07-23T04:02:13.732Z,4980
2017-07-23T04:03:15.629Z,5116
2017-07-23T04:04:17.502Z,5280
2017-07-23T04:05:31.698Z,5524
2017-07-23T04:06:33.567Z,5684
2017-07-23T04:07:35.446Z,5872
2017-07-23T04:08:37.342Z,6088
2017-07-23T04:09:39.153Z,6272
2017-07-23T04:10:40.991Z,6432
2017-07-23T04:11:42.888Z,6620
2017-07-23T04:12:44.766Z,6816
2017-07-23T04:13:46.668Z,7052
2017-07-23T04:15:00.825Z,7264
2017-07-23T04:16:02.693Z,7480
2017-07-23T04:17:04.596Z,7704
2017-07-23T04:18:06.489Z,7924
2017-07-23T04:19:08.300Z,8116
2017-07-23T04:20:10.117Z,8376
2017-07-23T04:21:12.014Z,8560
2017-07-23T04:22:13.890Z,8680
2017-07-23T04:23:15.773Z,8860
2017-07-23T04:24:29.916Z,9160
2017-07-23T04:25:31.791Z,9368
2017-07-23T04:26:33.670Z,9592
2017-07-23T04:27:35.553Z,9780
2017-07-23T04:28:37.365Z,10072
2017-07-23T04:29:39.176Z,10356
2017-07-23T04:30:41.080Z,10572
2017-07-23T04:31:42.983Z,10756
2017-07-23T04:32:44.866Z,10832
2017-07-23T04:33:59.016Z,10932
2017-07-23T04:35:00.918Z,11224
2017-07-23T04:36:02.820Z,10320
2017-07-23T04:37:04.692Z,11564
2017-07-23T04:38:06.512Z,11684
2017-07-23T04:39:08.347Z,11656
2017-07-23T04:40:10.224Z,11756
2017-07-23T04:41:12.100Z,11760
2017-07-23T04:42:13.982Z,11880
2017-07-23T04:43:28.159Z,11860
2017-07-23T04:44:30.059Z,11824
2017-07-23T04:45:31.938Z,11852
2017-07-23T04:46:33.841Z,11856
2017-07-23T04:47:35.680Z,11624
2017-07-23T04:48:37.491Z,11620
2017-07-23T04:49:39.384Z,11724
2017-07-23T04:50:41.250Z,10540
2017-07-23T04:51:43.129Z,11056
2017-07-23T04:52:57.304Z,11044
2017-07-23T04:53:59.187Z,11160
2017-07-23T04:55:01.082Z,11588
2017-07-23T04:56:02.961Z,12552
2017-07-23T04:57:04.779Z,13564
2017-07-23T04:58:06.616Z,14752
2017-07-23T04:59:08.496Z,15648
2017-07-23T05:00:10.400Z,15936
2017-07-23T05:01:12.303Z,16416
2017-07-23T05:02:26.455Z,16544
2017-07-23T05:03:28.337Z,16096
2017-07-23T05:04:30.237Z,17376
2017-07-23T05:05:32.119Z,16288
2017-07-23T05:06:33.934Z,14784
2017-07-23T05:07:35.773Z,13128
2017-07-23T05:08:37.655Z,10712
2017-07-23T05:09:39.560Z,11420
2017-07-23T05:10:41.459Z,10764
2017-07-23T05:11:55.620Z,11012
2017-07-23T05:12:57.520Z,9960
2017-07-23T05:13:59.424Z,10892
2017-07-23T05:15:01.341Z,8932
2017-07-23T05:16:03.138Z,7352
2017-07-23T05:17:04.953Z,7416
2017-07-23T05:18:06.852Z,7488
2017-07-23T05:19:08.734Z,7644
2017-07-23T05:20:10.633Z,7944
2017-07-23T05:21:24.784Z,8396
2017-07-23T05:22:26.685Z,8712
2017-07-23T05:23:28.580Z,9280
2017-07-23T05:24:30.485Z,9924
2017-07-23T05:25:32.328Z,10664
2017-07-23T05:26:34.140Z,12896
2017-07-23T05:27:36.044Z,12632
2017-07-23T05:28:37.920Z,13328
2017-07-23T05:29:39.819Z,18432
2017-07-23T05:30:53.974Z,11708
2017-07-23T05:31:55.846Z,9400
2017-07-23T05:32:57.724Z,9396
2017-07-23T05:33:59.628Z,7160
2017-07-23T05:35:01.459Z,6332
2017-07-23T05:36:03.279Z,5824
2017-07-23T05:37:05.152Z,5344
2017-07-23T05:38:07.028Z,5032
2017-07-23T05:39:08.931Z,4812
2017-07-23T05:40:23.103Z,4620
2017-07-23T05:41:25.015Z,4568
2017-07-23T05:42:26.896Z,4636
2017-07-23T05:43:28.776Z,4736
2017-07-23T05:44:30.612Z,4876
2017-07-23T05:45:32.428Z,5028
2017-07-23T05:46:34.322Z,5268
2017-07-23T05:47:36.158Z,5688
2017-07-23T05:48:38.030Z,6204
2017-07-23T05:49:52.178Z,6744
2017-07-23T05:50:54.056Z,7064
2017-07-23T05:51:55.928Z,7276
2017-07-23T05:52:57.799Z,7500
2017-07-23T05:53:59.614Z,7736
2017-07-23T05:55:01.448Z,8032
2017-07-23T05:56:03.323Z,8472
2017-07-23T05:57:05.197Z,8892
2017-07-23T05:58:07.092Z,9168
2017-07-23T05:59:21.244Z,9368
2017-07-23T06:00:23.146Z,9564
2017-07-23T06:01:25.044Z,9816
2017-07-23T06:02:26.922Z,10096
2017-07-23T06:03:28.741Z,10376
2017-07-23T06:04:30.580Z,10672
2017-07-23T06:05:32.479Z,11048
2017-07-23T06:06:34.354Z,11464
2017-07-23T06:07:36.235Z,11936
2017-07-23T06:08:50.381Z,12584
2017-07-23T06:09:52.268Z,13048
2017-07-23T06:10:54.160Z,13168
2017-07-23T06:11:56.041Z,13044
2017-07-23T06:12:57.879Z,12920
2017-07-23T06:13:59.695Z,12380
2017-07-23T06:15:01.595Z,12056
2017-07-23T06:16:03.473Z,12076
2017-07-23T06:17:05.342Z,11800
2017-07-23T06:18:19.519Z,11820
2017-07-23T06:19:21.408Z,12000
2017-07-23T06:20:23.289Z,11988
2017-07-23T06:21:25.164Z,12188
2017-07-23T06:22:27.002Z,12440
2017-07-23T06:23:28.841Z,12772
2017-07-23T06:24:30.738Z,12916
2017-07-23T06:25:32.614Z,13136
2017-07-23T06:26:34.492Z,12440
2017-07-23T06:27:48.645Z,11604
2017-07-23T06:28:50.540Z,12148
2017-07-23T06:29:52.428Z,13220
2017-07-23T06:30:54.321Z,14288
2017-07-23T06:31:56.146Z,15444
2017-07-23T06:32:57.984Z,15676
2017-07-23T06:33:59.841Z,15224
2017-07-23T06:35:01.657Z,12784
2017-07-23T06:36:03.474Z,10020
2017-07-23T06:37:17.644Z,8256
2017-07-23T06:38:19.526Z,7852
2017-07-23T06:39:21.418Z,7968
2017-07-23T06:40:23.298Z,8376
2017-07-23T06:41:25.116Z,8928
2017-07-23T06:42:26.929Z,9424
2017-07-23T06:43:28.801Z,9832
2017-07-23T06:44:30.681Z,10084
2017-07-23T06:45:32.578Z,10360
2017-07-23T06:46:46.728Z,10780
2017-07-23T06:47:48.612Z,10920
2017-07-23T06:48:50.511Z,11176
2017-07-23T06:49:52.413Z,11492
2017-07-23T06:50:54.250Z,11928
2017-07-23T06:51:56.068Z,12536
2017-07-23T06:52:57.971Z,13140
2017-07-23T06:53:59.845Z,13584
2017-07-23T06:55:01.744Z,13900
2017-07-23T06:56:15.902Z,14256
2017-07-23T06:57:17.794Z,14408
2017-07-23T06:58:19.678Z,14444
2017-07-23T06:59:21.610Z,14396
2017-07-23T07:00:23.450Z,14304
2017-07-23T07:01:25.296Z,14276
2017-07-23T07:02:27.175Z,14384
2017-07-23T07:03:29.045Z,14272
2017-07-23T07:04:30.945Z,14196
2017-07-23T07:05:45.122Z,14328
2017-07-23T07:06:47.026Z,14380
2017-07-23T07:07:48.928Z,14264
2017-07-23T07:08:50.833Z,14040
2017-07-23T07:09:52.652Z,13824
2017-07-23T07:10:54.487Z,13572
2017-07-23T07:11:56.772Z,13164
2017-07-23T07:12:58.614Z,12904
2017-07-23T07:14:00.497Z,12828
2017-07-23T07:15:14.674Z,12916
2017-07-23T07:16:16.573Z,13040
2017-07-23T07:17:18.453Z,13148
2017-07-23T07:18:20.383Z,13204
2017-07-23T07:19:22.179Z,13300
2017-07-23T07:20:23.998Z,13408
2017-07-23T07:21:25.873Z,13536
2017-07-23T07:22:27.751Z,13652
2017-07-23T07:23:29.633Z,13716
2017-07-23T07:24:43.787Z,13788
2017-07-23T07:25:45.694Z,13996
2017-07-23T07:26:47.589Z,14148
2017-07-23T07:27:49.463Z,14288
2017-07-23T07:28:51.301Z,14420
2017-07-23T07:29:53.154Z,14620
2017-07-23T07:30:55.022Z,14804
2017-07-23T07:31:56.902Z,14940
2017-07-23T07:32:58.826Z,15248
2017-07-23T07:34:12.994Z,15752
2017-07-23T07:35:14.883Z,16320
2017-07-23T07:36:16.763Z,16704
2017-07-23T07:37:18.708Z,16960
2017-07-23T07:38:20.582Z,16960
2017-07-23T07:39:22.438Z,16768
2017-07-23T07:40:24.336Z,16448
2017-07-23T07:41:26.323Z,16224
2017-07-23T07:42:28.222Z,15908
2017-07-23T07:43:42.375Z,15680
2017-07-23T07:44:44.327Z,15460
2017-07-23T07:45:46.236Z,15176
2017-07-23T07:46:48.122Z,14828
2017-07-23T07:47:50.008Z,14488
2017-07-23T07:48:51.875Z,14124
2017-07-23T07:49:53.756Z,13688
2017-07-23T07:50:55.654Z,13244
2017-07-23T07:51:57.534Z,12804
2017-07-23T07:53:11.722Z,12344
2017-07-23T07:54:13.611Z,12064
2017-07-23T07:55:15.491Z,11792
2017-07-23T07:56:17.387Z,11612
2017-07-23T07:57:19.211Z,11452
2017-07-23T07:58:21.052Z,11252
2017-07-23T07:59:22.949Z,10996
2017-07-23T08:00:24.828Z,10592
2017-07-23T08:01:26.732Z,10032
2017-07-23T08:02:40.881Z,9424
2017-07-23T08:03:42.765Z,9008
2017-07-23T08:04:44.666Z,8572
2017-07-23T08:05:46.569Z,8224
2017-07-23T08:06:48.404Z,8100
2017-07-23T08:07:50.218Z,7972
2017-07-23T08:08:52.099Z,8116
2017-07-23T08:09:53.973Z,8408
2017-07-23T08:10:55.854Z,8456
2017-07-23T08:12:10.046Z,8024
2017-07-23T08:13:11.924Z,7600
2017-07-23T08:14:13.828Z,7268
2017-07-23T08:15:15.731Z,7080
2017-07-23T08:16:17.612Z,6976
2017-07-23T08:17:19.408Z,7048
2017-07-23T08:18:21.306Z,7324
2017-07-23T08:19:23.187Z,7776
2017-07-23T08:20:25.106Z,8284
2017-07-23T08:21:39.283Z,8968
2017-07-23T08:22:41.160Z,9212
2017-07-23T08:23:43.036Z,9232
2017-07-23T08:24:44.914Z,9012
2017-07-23T08:25:46.753Z,8808
2017-07-23T08:26:48.592Z,8780
2017-07-23T08:27:50.496Z,8944
2017-07-23T08:28:52.375Z,9156
2017-07-23T08:29:54.273Z,9440
2017-07-23T08:31:08.451Z,9788
2017-07-23T08:32:10.365Z,10044
2017-07-23T08:33:12.240Z,10280
2017-07-23T08:34:14.141Z,10520
2017-07-23T08:35:15.982Z,10788
2017-07-23T08:36:17.824Z,11196
2017-07-23T08:37:19.695Z,11604
2017-07-23T08:38:21.570Z,11856
2017-07-23T08:39:23.460Z,11844
2017-07-23T08:40:37.619Z,11692
2017-07-23T08:41:39.559Z,11620
2017-07-23T08:42:41.430Z,11516
2017-07-23T08:43:43.307Z,11320
2017-07-23T08:44:45.122Z,11128
2017-07-23T08:45:46.938Z,10860
2017-07-23T08:46:48.820Z,10512
2017-07-23T08:47:50.716Z,10152
2017-07-23T08:48:52.597Z,9824
2017-07-23T08:50:06.803Z,9476
2017-07-23T08:51:08.645Z,9108
2017-07-23T08:52:10.552Z,8876
2017-07-23T08:53:12.433Z,8676
2017-07-23T08:54:14.280Z,8552
2017-07-23T08:55:16.103Z,8580
2017-07-23T08:56:18.009Z,8356
2017-07-23T08:57:19.870Z,8004
2017-07-23T08:58:21.782Z,7920
2017-07-23T08:59:35.956Z,7960
2017-07-23T09:00:37.987Z,7892
2017-07-23T09:01:39.911Z,7820
2017-07-23T09:02:41.790Z,7796
2017-07-23T09:03:43.673Z,7712
2017-07-23T09:04:45.488Z,7684
2017-07-23T09:05:47.365Z,7752
2017-07-23T09:06:49.266Z,7864
2017-07-23T09:07:51.207Z,8024
2017-07-23T09:09:05.361Z,8408
2017-07-23T09:10:07.282Z,8616
2017-07-23T09:11:09.201Z,8804
2017-07-23T09:12:11.081Z,8852
2017-07-23T09:13:12.916Z,8692
2017-07-23T09:14:14.732Z,8384
2017-07-23T09:15:16.607Z,8048
2017-07-23T09:16:18.490Z,7668
2017-07-23T09:17:20.369Z,7292
2017-07-23T09:18:34.514Z,7012
2017-07-23T09:19:36.398Z,6872
2017-07-23T09:20:38.281Z,6812
2017-07-23T09:21:40.176Z,6916
2017-07-23T09:22:42.015Z,7184
2017-07-23T09:23:43.861Z,7448
2017-07-23T09:24:45.763Z,7648
2017-07-23T09:25:47.638Z,7668
2017-07-23T09:26:49.523Z,7652
2017-07-23T09:28:03.754Z,7804
2017-07-23T09:29:05.638Z,7732
2017-07-23T09:30:07.517Z,7636
2017-07-23T09:31:09.392Z,7672
2017-07-23T09:32:11.207Z,7932
2017-07-23T09:33:13.025Z,8324
2017-07-23T09:34:14.932Z,8632
2017-07-23T09:35:16.828Z,8792
2017-07-23T09:36:18.712Z,8808
2017-07-23T09:37:32.878Z,8716
2017-07-23T09:38:34.756Z,8548
2017-07-23T09:39:36.637Z,8568
2017-07-23T09:40:38.608Z,8568
2017-07-23T09:41:40.423Z,8488
2017-07-23T09:42:42.261Z,8304
2017-07-23T09:43:44.145Z,8196
2017-07-23T09:44:46.052Z,7976
2017-07-23T09:45:47.947Z,7736
2017-07-23T09:47:02.198Z,7488
2017-07-23T09:48:04.093Z,7480
2017-07-23T09:49:05.984Z,7692
2017-07-23T09:50:07.865Z,7932
2017-07-23T09:51:09.676Z,8108
2017-07-23T09:52:11.962Z,8304
2017-07-23T09:53:13.939Z,8636
2017-07-23T09:54:15.812Z,9052
2017-07-23T09:55:17.704Z,9252
2017-07-23T09:56:31.877Z,9292
2017-07-23T09:57:33.774Z,9488
2017-07-23T09:58:35.653Z,9816
2017-07-23T09:59:37.528Z,10064
2017-07-23T10:00:39.349Z,10152
2017-07-23T10:01:41.186Z,10128
2017-07-23T10:02:43.064Z,9908
2017-07-23T10:03:44.964Z,9580
2017-07-23T10:04:46.843Z,9400
2017-07-23T10:06:01.020Z,9588
2017-07-23T10:07:02.897Z,10056
2017-07-23T10:08:04.809Z,10448
2017-07-23T10:09:06.676Z,10548
2017-07-23T10:10:08.492Z,10516
2017-07-23T10:11:10.306Z,10632
2017-07-23T10:12:12.183Z,11064
2017-07-23T10:13:14.067Z,11772
2017-07-23T10:14:15.940Z,12492
2017-07-23T10:15:30.117Z,12768
2017-07-23T10:16:31.993Z,12400
2017-07-23T10:17:33.908Z,11988
2017-07-23T10:18:35.773Z,11652
2017-07-23T10:19:37.624Z,11192
2017-07-23T10:20:39.455Z,11004
2017-07-23T10:21:41.336Z,10900
2017-07-23T10:22:43.211Z,11004
2017-07-23T10:23:45.092Z,11504
2017-07-23T10:24:59.268Z,12376
2017-07-23T10:26:01.171Z,13092
2017-07-23T10:27:03.070Z,13456
2017-07-23T10:28:04.958Z,13696
2017-07-23T10:29:06.796Z,13916
2017-07-23T10:30:08.643Z,13892
2017-07-23T10:31:10.484Z,13620
2017-07-23T10:32:12.369Z,13232
2017-07-23T10:33:14.248Z,13040
2017-07-23T10:34:28.398Z,13208
2017-07-23T10:35:30.277Z,13508
2017-07-23T10:36:32.157Z,14028
2017-07-23T10:37:34.058Z,14736
2017-07-23T10:38:35.875Z,15900
2017-07-23T10:39:37.694Z,17312
2017-07-23T10:40:39.569Z,18336
2017-07-23T10:41:41.457Z,19104
2017-07-23T10:42:43.368Z,19552
2017-07-23T10:43:57.511Z,19840
2017-07-23T10:44:59.417Z,20224
2017-07-23T10:46:01.321Z,20416
2017-07-23T10:47:03.225Z,20256
2017-07-23T10:48:05.076Z,19904
2017-07-23T10:49:06.910Z,19680
2017-07-23T10:50:08.815Z,19648
2017-07-23T10:51:10.719Z,19616
2017-07-23T10:52:12.628Z,19424
2017-07-23T10:53:26.834Z,18624
2017-07-23T10:54:28.715Z,18080
2017-07-23T10:55:30.594Z,18496
2017-07-23T10:56:32.709Z,18656
2017-07-23T10:57:34.524Z,18880
2017-07-23T10:58:36.337Z,18912
2017-07-23T10:59:38.219Z,19616
2017-07-23T11:00:40.106Z,20672
2017-07-23T11:01:42.006Z,21024
2017-07-23T11:02:56.195Z,21056
2017-07-23T11:03:58.103Z,20800
2017-07-23T11:04:59.977Z,20032
2017-07-23T11:06:01.858Z,18944
2017-07-23T11:07:03.677Z,17952
2017-07-23T11:08:05.516Z,17312
2017-07-23T11:09:07.395Z,16832
2017-07-23T11:10:09.301Z,17280
2017-07-23T11:11:11.201Z,17760
2017-07-23T11:12:25.360Z,18016
2017-07-23T11:13:27.241Z,18304
2017-07-23T11:14:29.124Z,18912
2017-07-23T11:15:31.012Z,19392
2017-07-23T11:16:32.851Z,19776
2017-07-23T11:17:34.710Z,20224
2017-07-23T11:18:36.618Z,20608
2017-07-23T11:19:38.527Z,21120
2017-07-23T11:20:40.559Z,22048
2017-07-23T11:21:54.686Z,22816
2017-07-23T11:22:56.591Z,23104
2017-07-23T11:23:58.483Z,23040
2017-07-23T11:25:00.387Z,22112
2017-07-23T11:26:02.226Z,21088
2017-07-23T11:27:04.045Z,20000
2017-07-23T11:28:05.951Z,19200
2017-07-23T11:29:07.830Z,18400
2017-07-23T11:30:09.735Z,18144
2017-07-23T11:31:23.888Z,18624
2017-07-23T11:32:25.779Z,19104
2017-07-23T11:33:27.675Z,19296
2017-07-23T11:34:29.584Z,18976
2017-07-23T11:35:31.467Z,19328
2017-07-23T11:36:33.323Z,20064
2017-07-23T11:37:35.264Z,20864
2017-07-23T11:38:37.205Z,21184
2017-07-23T11:39:39.147Z,20320
2017-07-23T11:40:53.378Z,18688
2017-07-23T11:41:55.276Z,17088
2017-07-23T11:42:57.218Z,15408
2017-07-23T11:43:59.166Z,13972
2017-07-23T11:45:01.044Z,12892
2017-07-23T11:46:02.923Z,11796
2017-07-23T11:47:04.868Z,10568
2017-07-23T11:48:06.767Z,9488
2017-07-23T11:49:08.685Z,8664
2017-07-23T11:50:22.902Z,6748
2017-07-23T11:51:25.778Z,5592
2017-07-23T11:52:27.693Z,5108
2017-07-23T11:53:29.614Z,5244
2017-07-23T11:54:31.462Z,5692
2017-07-23T11:55:33.323Z,6236
2017-07-23T11:56:35.259Z,7320
2017-07-23T11:57:37.175Z,9148
2017-07-23T11:58:39.093Z,10288
2017-07-23T11:59:53.300Z,10096
2017-07-23T12:00:55.206Z,9360
2017-07-23T12:01:57.142Z,9176
2017-07-23T12:02:59.086Z,9832
2017-07-23T12:04:00.967Z,11012
2017-07-23T12:05:02.853Z,11968
2017-07-23T12:06:04.764Z,12324
2017-07-23T12:07:06.720Z,12152
2017-07-23T12:08:08.645Z,11604
2017-07-23T12:09:22.953Z,10692
2017-07-23T12:10:24.908Z,10000
2017-07-23T12:11:26.886Z,9416
2017-07-23T12:12:28.820Z,8836
2017-07-23T12:13:30.698Z,8520
2017-07-23T12:14:32.577Z,8388
2017-07-23T12:15:34.519Z,8540
2017-07-23T12:16:36.429Z,8872
2017-07-23T12:17:38.341Z,9336
2017-07-23T12:18:52.619Z,10064
2017-07-23T12:19:54.562Z,10884
2017-07-23T12:20:56.552Z,11844
2017-07-23T12:21:58.490Z,12852
2017-07-23T12:23:00.361Z,13852
2017-07-23T12:24:02.243Z,14656
2017-07-23T12:25:04.222Z,15232
2017-07-23T12:26:06.172Z,15672
2017-07-23T12:27:08.140Z,16004
2017-07-23T12:28:22.356Z,16768
2017-07-23T12:29:24.282Z,17088
2017-07-23T12:30:26.183Z,17664
2017-07-23T12:31:28.119Z,18336
2017-07-23T12:32:29.965Z,19072
2017-07-23T12:33:31.819Z,19168
2017-07-23T12:34:33.713Z,18816
2017-07-23T12:35:35.625Z,18208
2017-07-23T12:36:37.522Z,17824
2017-07-23T12:37:51.676Z,17632
2017-07-23T12:38:53.580Z,17440
2017-07-23T12:39:55.581Z,17504
2017-07-23T12:40:57.555Z,17952
2017-07-23T12:41:59.405Z,18112
2017-07-23T12:43:01.274Z,17824
2017-07-23T12:44:03.148Z,17568
2017-07-23T12:45:05.054Z,17472
2017-07-23T12:46:07.008Z,17312
2017-07-23T12:47:21.195Z,16992
2017-07-23T12:48:23.093Z,16512
2017-07-23T12:49:24.994Z,16128
2017-07-23T12:50:26.890Z,16352
2017-07-23T12:51:28.692Z,16800
2017-07-23T12:52:30.520Z,16992
2017-07-23T12:53:32.395Z,16864
2017-07-23T12:54:34.275Z,16864
2017-07-23T12:55:36.174Z,16864
2017-07-23T12:56:50.332Z,16896
2017-07-23T12:57:52.207Z,16512
2017-07-23T12:58:54.108Z,16224
2017-07-23T12:59:56.002Z,16608
2017-07-23T13:00:57.821Z,17152
2017-07-23T13:01:59.636Z,17792
2017-07-23T13:03:01.518Z,18432
2017-07-23T13:04:03.423Z,19040
2017-07-23T13:05:05.293Z,19648
2017-07-23T13:06:19.449Z,20032
2017-07-23T13:07:21.354Z,19904
2017-07-23T13:08:23.232Z,19424
2017-07-23T13:09:25.120Z,18944
2017-07-23T13:10:27.297Z,18240
2017-07-23T13:11:29.305Z,17120
2017-07-23T13:12:31.199Z,16384
2017-07-23T13:13:33.101Z,16768
2017-07-23T13:14:34.984Z,17600
2017-07-23T13:15:49.131Z,18592
2017-07-23T13:16:51.008Z,19168
2017-07-23T13:17:52.909Z,19072
2017-07-23T13:18:54.791Z,18816
2017-07-23T13:19:56.628Z,18496
2017-07-23T13:20:58.450Z,18144
2017-07-23T13:22:00.355Z,17888
2017-07-23T13:23:02.231Z,18336
2017-07-23T13:24:04.109Z,19328
2017-07-23T13:25:18.282Z,20896
2017-07-23T13:26:20.186Z,21120
2017-07-23T13:27:22.072Z,20608
2017-07-23T13:28:23.980Z,19040
2017-07-23T13:29:25.822Z,18272
2017-07-23T13:30:27.630Z,18240
2017-07-23T13:31:29.541Z,17664
2017-07-23T13:32:31.415Z,16864
2017-07-23T13:33:33.321Z,15952
2017-07-23T13:34:47.479Z,14968
2017-07-23T13:35:49.378Z,15032
2017-07-23T13:36:51.276Z,15804
2017-07-23T13:37:53.164Z,16576
2017-07-23T13:38:55.009Z,17344
2017-07-23T13:39:56.851Z,17824
2017-07-23T13:40:58.732Z,17952
2017-07-23T13:42:00.640Z,18272
2017-07-23T13:43:02.540Z,18240
2017-07-23T13:44:16.723Z,17856
2017-07-23T13:45:18.626Z,17568
2017-07-23T13:46:20.523Z,17216
2017-07-23T13:47:22.406Z,16704
2017-07-23T13:48:24.274Z,16384
2017-07-23T13:49:26.114Z,16000
2017-07-23T13:50:27.995Z,15152
2017-07-23T13:51:29.869Z,14496
2017-07-23T13:52:31.768Z,14040
2017-07-23T13:53:45.972Z,15268
2017-07-23T13:54:47.857Z,16800
2017-07-23T13:55:49.749Z,17376
2017-07-23T13:56:51.633Z,17568
2017-07-23T13:57:53.541Z,17888
2017-07-23T13:58:55.366Z,17792
2017-07-23T13:59:57.265Z,17408
2017-07-23T14:00:59.142Z,17408
2017-07-23T14:02:01.031Z,18176
2017-07-23T14:03:15.205Z,18336
2017-07-23T14:04:17.080Z,18464
2017-07-23T14:05:18.952Z,19488
2017-07-23T14:06:20.833Z,19264
2017-07-23T14:07:22.679Z,19712